Terminal Aerodrome Forecast
Issued by NWS

Home | Current Version | Previous Version | Text Only | Print | Product List | Glossary On
Versions: 1 2 3 4 5 6 7 8 9 10 11 12 13 14 15 16 17 18 19 20 21 22 23 24 25 26 27 28 29 30 31 32 33 34 35 36 37 38 39
000
FTUS43 KGRB 222300
TAFRHI
TAF
KRHI 222320Z 2300/2324 25005KT P6SM SKC
     FM230500 VRB02KT 4SM BR SKC
      TEMPO 2306/2308 1 1/2SM BR
     FM230800 VRB02KT 1 1/2SM BR SKC
      TEMPO 2309/2313 1/2SM FG BKN002
     FM231400 21006KT P6SM FEW050=

USA.gov is the U.S. government's official web portal to all federal, state and local government web resources and services.